createdAt,value
2018-06-20T00:00:22.146Z,16.78
2018-06-20T00:01:28.586Z,16.75
2018-06-20T00:02:35.024Z,16.69
2018-06-20T00:03:41.464Z,16.65
2018-06-20T00:04:47.900Z,16.64
2018-06-20T00:05:54.345Z,16.63
2018-06-20T00:07:01.278Z,16.63
2018-06-20T00:08:07.213Z,16.63
2018-06-20T00:09:13.658Z,16.63
2018-06-20T00:10:20.096Z,16.62
2018-06-20T00:11:26.548Z,16.61
2018-06-20T00:12:32.979Z,16.62
2018-06-20T00:13:40.009Z,16.61
2018-06-20T00:14:46.354Z,16.65
2018-06-20T00:15:52.310Z,16.70
2018-06-20T00:16:58.735Z,16.72
2018-06-20T00:18:05.168Z,16.74
2018-06-20T00:19:11.614Z,16.77
2018-06-20T00:20:18.052Z,16.79
2018-06-20T00:21:24.497Z,16.84
2018-06-20T00:22:31.132Z,16.87
2018-06-20T00:23:37.867Z,16.88
2018-06-20T00:24:43.804Z,16.91
2018-06-20T00:25:50.245Z,16.95
2018-06-20T00:26:56.689Z,16.97
2018-06-20T00:28:03.121Z,16.98
2018-06-20T00:29:09.557Z,16.99
2018-06-20T00:30:15.995Z,17.03
2018-06-20T00:31:22.444Z,17.08
2018-06-20T00:32:29.385Z,17.12
2018-06-20T00:33:35.326Z,17.13
2018-06-20T00:34:41.762Z,17.11
2018-06-20T00:35:48.199Z,17.08
2018-06-20T00:36:54.662Z,17.05
2018-06-20T00:38:01.079Z,17.02
2018-06-20T00:39:07.538Z,17.00
2018-06-20T00:40:14.463Z,16.97
2018-06-20T00:41:20.412Z,16.95
2018-06-20T00:42:26.854Z,16.94
2018-06-20T00:43:33.782Z,16.92
2018-06-20T00:44:41.217Z,16.92
2018-06-20T00:45:46.674Z,16.93
2018-06-20T00:46:53.105Z,16.93
2018-06-20T00:47:59.045Z,16.92
2018-06-20T00:49:05.490Z,16.92
2018-06-20T00:50:12.433Z,16.90
2018-06-20T00:51:18.371Z,16.90
2018-06-20T00:52:25.821Z,16.89
2018-06-20T00:53:31.267Z,16.88
2018-06-20T00:54:37.705Z,16.88
2018-06-20T00:55:44.138Z,16.88
2018-06-20T00:56:50.584Z,16.88
2018-06-20T00:57:57.523Z,16.88
2018-06-20T00:59:04.011Z,16.87
2018-06-20T01:00:09.897Z,16.87
2018-06-20T01:01:16.338Z,16.85
2018-06-20T01:02:22.783Z,16.85
2018-06-20T01:03:29.225Z,16.83
2018-06-20T01:04:35.669Z,16.83
2018-06-20T01:05:42.105Z,16.82
2018-06-20T01:06:48.536Z,16.82
2018-06-20T01:07:54.987Z,16.81
2018-06-20T01:09:01.437Z,16.80
2018-06-20T01:10:07.857Z,16.79
2018-06-20T01:11:14.792Z,16.80
2018-06-20T01:12:20.750Z,16.80
2018-06-20T01:13:27.177Z,16.80
2018-06-20T01:14:33.624Z,16.81
2018-06-20T01:15:40.070Z,16.80
2018-06-20T01:16:47.505Z,16.79
2018-06-20T01:17:53.441Z,16.78
2018-06-20T01:18:59.379Z,16.76
2018-06-20T01:20:06.314Z,16.78
2018-06-20T01:21:12.265Z,16.75
2018-06-20T01:22:18.708Z,16.73
2018-06-20T01:23:25.146Z,16.69
2018-06-20T01:24:31.578Z,16.68
2018-06-20T01:25:38.515Z,16.67
2018-06-20T01:26:44.451Z,16.67
2018-06-20T01:27:50.899Z,16.68
2018-06-20T01:28:57.331Z,16.68
2018-06-20T01:30:04.260Z,16.69
2018-06-20T01:31:10.703Z,16.67
2018-06-20T01:32:17.152Z,16.65
2018-06-20T01:33:23.595Z,16.63
2018-06-20T01:34:30.031Z,16.62
2018-06-20T01:35:35.974Z,16.62
2018-06-20T01:36:42.896Z,16.62
2018-06-20T01:37:48.839Z,16.61
2018-06-20T01:38:55.286Z,16.59
2018-06-20T01:40:01.734Z,16.61
2018-06-20T01:41:08.159Z,16.59
2018-06-20T01:42:15.080Z,16.59
2018-06-20T01:43:21.024Z,16.57
2018-06-20T01:44:27.475Z,16.54
2018-06-20T01:45:33.897Z,16.50
2018-06-20T01:46:40.335Z,16.46
2018-06-20T01:47:46.769Z,16.43
2018-06-20T01:48:53.218Z,16.39
2018-06-20T01:50:00.644Z,16.35
2018-06-20T01:51:06.079Z,16.31
2018-06-20T01:52:12.995Z,16.27
2018-06-20T01:53:18.936Z,16.24
2018-06-20T01:54:25.380Z,16.21
2018-06-20T01:55:31.818Z,16.18
2018-06-20T01:56:38.234Z,16.15
2018-06-20T01:57:44.678Z,16.14
2018-06-20T01:58:51.097Z,16.11
2018-06-20T01:59:57.529Z,16.04
2018-06-20T02:01:04.443Z,15.98
2018-06-20T02:02:10.379Z,15.91
2018-06-20T02:03:17.299Z,15.86
2018-06-20T02:04:23.730Z,15.82
2018-06-20T02:05:29.659Z,15.86
2018-06-20T02:06:36.089Z,15.89
2018-06-20T02:07:42.510Z,15.93
2018-06-20T02:08:49.417Z,15.93
2018-06-20T02:09:55.361Z,15.92
2018-06-20T02:11:01.774Z,15.89
2018-06-20T02:12:08.697Z,15.85
2018-06-20T02:13:15.110Z,15.80
2018-06-20T02:14:21.045Z,15.73
2018-06-20T02:15:28.952Z,15.68
2018-06-20T02:16:34.376Z,15.64
2018-06-20T02:17:40.817Z,15.61
2018-06-20T02:18:46.726Z,15.59
2018-06-20T02:19:53.157Z,15.62
2018-06-20T02:20:59.564Z,15.63
2018-06-20T02:22:06.473Z,15.60
2018-06-20T02:23:12.395Z,15.60
2018-06-20T02:24:19.317Z,15.59
2018-06-20T02:25:25.229Z,15.58
2018-06-20T02:26:31.643Z,15.56
2018-06-20T02:27:38.060Z,15.58
2018-06-20T02:28:44.773Z,15.59
2018-06-20T02:29:50.898Z,15.60
2018-06-20T02:30:57.309Z,15.61
2018-06-20T02:32:03.711Z,15.65
2018-06-20T02:33:10.128Z,15.68
2018-06-20T02:34:16.533Z,15.69
2018-06-20T02:35:23.442Z,15.69
2018-06-20T02:36:29.356Z,15.69
2018-06-20T02:37:35.769Z,15.68
2018-06-20T02:38:43.178Z,15.69
2018-06-20T02:39:48.582Z,15.64
2018-06-20T02:40:54.999Z,15.59
2018-06-20T02:42:01.404Z,15.56
2018-06-20T02:43:07.828Z,15.54
2018-06-20T02:44:14.720Z,15.55
2018-06-20T02:45:20.650Z,15.56
2018-06-20T02:46:27.546Z,15.54
2018-06-20T02:47:33.467Z,15.50
2018-06-20T02:48:39.874Z,15.47
2018-06-20T02:49:46.780Z,15.44
2018-06-20T02:50:52.705Z,15.42
2018-06-20T02:51:59.104Z,15.38
2018-06-20T02:53:05.515Z,15.34
2018-06-20T02:54:12.413Z,15.33
2018-06-20T02:55:18.351Z,15.36
2018-06-20T02:56:24.740Z,15.39
2018-06-20T02:57:31.143Z,15.45
2018-06-20T02:58:37.553Z,15.51
2018-06-20T02:59:43.959Z,15.55
2018-06-20T03:00:50.383Z,15.55
2018-06-20T03:01:57.777Z,15.53
2018-06-20T03:03:03.180Z,15.52
2018-06-20T03:04:09.596Z,15.53
2018-06-20T03:05:16.006Z,15.52
2018-06-20T03:06:23.408Z,15.52
2018-06-20T03:07:28.806Z,15.53
2018-06-20T03:08:35.222Z,15.54
2018-06-20T03:09:41.619Z,15.54
2018-06-20T03:10:48.041Z,15.53
2018-06-20T03:11:54.432Z,15.55
2018-06-20T03:13:00.849Z,15.57
2018-06-20T03:14:07.240Z,15.58
2018-06-20T03:15:13.660Z,15.58
2018-06-20T03:16:20.078Z,15.58
2018-06-20T03:17:26.972Z,15.59
2018-06-20T03:18:32.875Z,15.59
2018-06-20T03:19:39.289Z,15.59
2018-06-20T03:20:45.695Z,15.61
2018-06-20T03:21:52.106Z,15.64
2018-06-20T03:22:59.007Z,15.69
2018-06-20T03:24:04.919Z,15.72
2018-06-20T03:25:11.319Z,15.73
2018-06-20T03:26:17.736Z,15.72
2018-06-20T03:27:24.192Z,15.72
2018-06-20T03:28:31.040Z,15.73
2018-06-20T03:29:36.948Z,15.75
2018-06-20T03:30:43.861Z,15.77
2018-06-20T03:31:50.271Z,15.79
2018-06-20T03:32:56.673Z,15.81
2018-06-20T03:34:02.594Z,15.82
2018-06-20T03:35:09.013Z,15.83
2018-06-20T03:36:15.429Z,15.81
2018-06-20T03:37:21.843Z,15.81
2018-06-20T03:38:28.248Z,15.83
2018-06-20T03:39:34.648Z,15.84
2018-06-20T03:40:41.066Z,15.87
2018-06-20T03:41:47.494Z,15.91
2018-06-20T03:42:53.895Z,15.95
2018-06-20T03:44:00.315Z,16.00
2018-06-20T03:45:06.745Z,16.02
2018-06-20T03:46:13.659Z,16.04
2018-06-20T03:47:19.566Z,16.07
2018-06-20T03:48:25.978Z,16.08
2018-06-20T03:49:32.395Z,16.09
2018-06-20T03:50:38.818Z,16.10
2018-06-20T03:51:45.246Z,16.12
2018-06-20T03:52:51.668Z,16.15
2018-06-20T03:53:58.576Z,16.17
2018-06-20T03:55:04.501Z,16.20
2018-06-20T03:56:10.917Z,16.22
2018-06-20T03:57:17.361Z,16.26
2018-06-20T03:58:23.959Z,16.29
2018-06-20T03:59:30.189Z,16.32
2018-06-20T04:00:36.615Z,16.34
2018-06-20T04:01:43.054Z,16.36
2018-06-20T04:02:49.466Z,16.39
2018-06-20T04:03:55.899Z,16.41
2018-06-20T04:05:02.333Z,16.44
2018-06-20T04:06:08.752Z,16.45
2018-06-20T04:07:15.196Z,16.49
2018-06-20T04:08:21.621Z,16.52
2018-06-20T04:09:28.054Z,16.55
2018-06-20T04:10:34.482Z,16.56
2018-06-20T04:11:40.915Z,16.59
2018-06-20T04:12:47.390Z,16.62
2018-06-20T04:13:53.793Z,16.65
2018-06-20T04:15:00.223Z,16.68
2018-06-20T04:16:06.664Z,16.72
2018-06-20T04:17:13.112Z,16.77
2018-06-20T04:18:19.611Z,16.81
2018-06-20T04:19:27.479Z,16.84
2018-06-20T04:20:32.436Z,16.87
2018-06-20T04:21:38.889Z,16.91
2018-06-20T04:22:45.336Z,16.96
2018-06-20T04:23:51.787Z,17.01
2018-06-20T04:24:58.220Z,17.04
2018-06-20T04:26:04.669Z,17.08
2018-06-20T04:27:11.123Z,17.09
2018-06-20T04:28:17.888Z,17.12
2018-06-20T04:29:24.028Z,17.15
2018-06-20T04:30:30.476Z,17.18
2018-06-20T04:31:38.005Z,17.23
2018-06-20T04:32:43.402Z,17.26
2018-06-20T04:33:50.345Z,17.32
2018-06-20T04:34:56.815Z,17.36
2018-06-20T04:36:02.769Z,17.41
2018-06-20T04:37:10.224Z,17.49
2018-06-20T04:38:15.697Z,17.57
2018-06-20T04:39:22.167Z,17.64
2018-06-20T04:40:29.117Z,17.71
2018-06-20T04:41:35.103Z,17.77
2018-06-20T04:42:42.073Z,17.85
2018-06-20T04:43:48.039Z,17.91
2018-06-20T04:44:54.524Z,17.97
2018-06-20T04:46:01.000Z,18.00
2018-06-20T04:47:08.005Z,18.03
2018-06-20T04:48:13.958Z,18.06
2018-06-20T04:49:20.431Z,18.10
2018-06-20T04:50:26.925Z,18.15
2018-06-20T04:51:33.896Z,18.20
2018-06-20T04:52:40.370Z,18.24
2018-06-20T04:53:46.378Z,18.30
2018-06-20T04:54:52.852Z,18.39
2018-06-20T04:55:59.361Z,18.43
2018-06-20T04:57:05.850Z,18.49
2018-06-20T04:58:12.337Z,18.51
2018-06-20T04:59:18.815Z,18.52
2018-06-20T05:00:25.801Z,18.57
2018-06-20T05:01:32.308Z,18.66
2018-06-20T05:02:38.305Z,18.74
2018-06-20T05:03:45.304Z,18.77
2018-06-20T05:04:51.312Z,18.79
2018-06-20T05:05:57.819Z,18.85
2018-06-20T05:07:04.308Z,18.91
2018-06-20T05:08:11.314Z,18.96
2018-06-20T05:09:17.334Z,18.99
2018-06-20T05:10:23.824Z,18.98
2018-06-20T05:11:30.825Z,18.93
2018-06-20T05:12:36.839Z,18.87
2018-06-20T05:13:43.847Z,18.84
2018-06-20T05:14:49.858Z,18.81
2018-06-20T05:15:56.379Z,18.79
2018-06-20T05:17:02.880Z,18.80
2018-06-20T05:18:09.400Z,18.81
2018-06-20T05:19:15.913Z,18.80
2018-06-20T05:20:22.420Z,18.80
2018-06-20T05:21:28.922Z,18.76
2018-06-20T05:22:36.035Z,18.70
2018-06-20T05:23:41.956Z,18.65
2018-06-20T05:24:48.462Z,18.60
2018-06-20T05:25:55.465Z,18.57
2018-06-20T05:27:02.000Z,18.60
2018-06-20T05:28:07.972Z,18.60
2018-06-20T05:29:14.496Z,18.62
2018-06-20T05:30:21.008Z,18.57
2018-06-20T05:31:27.506Z,18.50
2018-06-20T05:32:34.010Z,18.45
2018-06-20T05:33:40.506Z,18.42
2018-06-20T05:34:47.028Z,18.38
2018-06-20T05:35:53.524Z,18.30
2018-06-20T05:37:00.015Z,18.25
2018-06-20T05:38:06.512Z,18.17
2018-06-20T05:39:13.517Z,18.14
2018-06-20T05:40:19.524Z,18.10
2018-06-20T05:41:26.012Z,18.10
2018-06-20T05:42:32.524Z,18.11
2018-06-20T05:43:39.008Z,18.17
2018-06-20T05:44:45.520Z,18.20
2018-06-20T05:45:52.020Z,18.23
2018-06-20T05:46:58.505Z,18.27
2018-06-20T05:48:05.017Z,18.27
2018-06-20T05:49:12.011Z,18.24
2018-06-20T05:50:18.519Z,18.30
2018-06-20T05:51:24.510Z,18.43
2018-06-20T05:52:31.000Z,18.52
2018-06-20T05:53:38.029Z,18.56
2018-06-20T05:54:44.005Z,18.57
2018-06-20T05:55:50.502Z,18.54
2018-06-20T05:56:56.992Z,18.56
2018-06-20T05:58:03.995Z,18.61
2018-06-20T05:59:10.033Z,18.60
2018-06-20T06:00:16.505Z,18.60
2018-06-20T06:01:22.992Z,18.61
2018-06-20T06:02:29.487Z,18.65
2018-06-20T06:03:35.989Z,18.67
2018-06-20T06:04:42.591Z,18.70
2018-06-20T06:05:49.509Z,18.71
2018-06-20T06:06:55.506Z,18.78
2018-06-20T06:08:02.009Z,18.84
2018-06-20T06:09:08.507Z,18.90
2018-06-20T06:10:15.013Z,18.91
2018-06-20T06:11:22.003Z,19.01
2018-06-20T06:12:28.009Z,19.12
2018-06-20T06:13:34.515Z,19.22
2018-06-20T06:14:41.521Z,19.31
2018-06-20T06:15:47.541Z,19.33
2018-06-20T06:16:54.109Z,19.35
2018-06-20T06:18:00.550Z,19.35
2018-06-20T06:19:07.068Z,19.33
2018-06-20T06:20:13.580Z,19.31
2018-06-20T06:21:20.090Z,19.33
2018-06-20T06:22:27.097Z,19.39
2018-06-20T06:23:33.110Z,19.43
2018-06-20T06:24:39.843Z,19.47
2018-06-20T06:25:46.149Z,19.47
2018-06-20T06:26:52.673Z,19.45
2018-06-20T06:27:59.197Z,19.47
2018-06-20T06:29:05.707Z,19.46
2018-06-20T06:30:12.732Z,19.45
2018-06-20T06:31:18.742Z,19.43
2018-06-20T06:32:25.280Z,19.44
2018-06-20T06:33:31.788Z,19.44
2018-06-20T06:34:39.323Z,19.44
2018-06-20T06:35:45.371Z,19.43
2018-06-20T06:36:51.386Z,19.41
2018-06-20T06:37:58.418Z,19.43
2018-06-20T06:39:04.458Z,19.49
2018-06-20T06:40:11.008Z,19.49
2018-06-20T06:41:17.531Z,19.49
2018-06-20T06:42:24.080Z,19.51
2018-06-20T06:43:30.624Z,19.54
2018-06-20T06:44:37.181Z,19.57
2018-06-20T06:45:44.731Z,19.59
2018-06-20T06:46:50.280Z,19.65
2018-06-20T06:47:56.834Z,19.67
2018-06-20T06:49:03.390Z,19.69
2018-06-20T06:50:10.138Z,19.69
2018-06-20T06:51:16.512Z,19.68
2018-06-20T06:52:23.070Z,19.69
2018-06-20T06:53:29.625Z,19.75
2018-06-20T06:54:36.687Z,19.80
2018-06-20T06:55:42.755Z,19.88
2018-06-20T06:56:49.799Z,19.94
2018-06-20T06:57:55.877Z,19.96
2018-06-20T06:59:02.445Z,20.00
2018-06-20T07:00:08.999Z,20.10
2018-06-20T07:01:15.584Z,20.21
2018-06-20T07:02:22.631Z,20.23
2018-06-20T07:03:28.716Z,20.25
2018-06-20T07:04:35.293Z,20.30
2018-06-20T07:05:41.875Z,20.39
2018-06-20T07:06:48.437Z,20.47
2018-06-20T07:07:55.024Z,20.48
2018-06-20T07:09:01.602Z,20.53
2018-06-20T07:10:08.189Z,20.60
2018-06-20T07:11:14.765Z,20.71
2018-06-20T07:12:21.335Z,20.84
2018-06-20T07:13:28.437Z,20.97
2018-06-20T07:14:34.554Z,21.14
2018-06-20T07:15:41.106Z,21.84
2018-06-20T07:16:47.701Z,24.27
2018-06-20T07:17:54.283Z,26.79
2018-06-20T07:19:00.874Z,27.87
2018-06-20T07:20:07.477Z,28.56
2018-06-20T07:21:14.066Z,29.87
2018-06-20T07:22:20.659Z,31.91
2018-06-20T07:23:27.731Z,34.06
2018-06-20T07:24:33.848Z,35.91
2018-06-20T07:25:40.436Z,37.38
2018-06-20T07:26:47.032Z,38.52
2018-06-20T07:27:53.624Z,39.15
2018-06-20T07:29:00.230Z,39.00
2018-06-20T07:30:07.393Z,39.51
2018-06-20T07:31:13.438Z,40.20
2018-06-20T07:32:20.026Z,40.72
2018-06-20T07:33:26.629Z,40.99
2018-06-20T07:34:33.328Z,41.00
2018-06-20T07:35:40.054Z,40.57
2018-06-20T07:36:46.957Z,40.74
2018-06-20T07:37:53.080Z,40.53
2018-06-20T07:38:59.675Z,41.02
2018-06-20T07:40:06.277Z,41.36
2018-06-20T07:41:12.886Z,41.42
2018-06-20T07:42:19.507Z,41.47
2018-06-20T07:43:26.630Z,41.20
2018-06-20T07:44:32.731Z,40.44
2018-06-20T07:45:39.847Z,38.70
2018-06-20T07:46:45.979Z,36.40
2018-06-20T07:47:52.630Z,34.11
2018-06-20T07:48:59.716Z,31.64
2018-06-20T07:50:06.307Z,29.99
2018-06-20T07:51:12.445Z,28.65
2018-06-20T07:52:19.071Z,27.58
2018-06-20T07:53:25.717Z,26.68
2018-06-20T07:54:32.317Z,26.11
2018-06-20T07:55:38.949Z,25.58
2018-06-20T07:56:45.580Z,25.17
2018-06-20T07:57:52.215Z,24.89
2018-06-20T07:58:58.831Z,24.68
2018-06-20T08:00:05.487Z,24.58
2018-06-20T08:01:12.104Z,24.42
2018-06-20T08:02:18.747Z,24.29
2018-06-20T08:03:25.871Z,24.23
2018-06-20T08:04:32.016Z,24.21
2018-06-20T08:05:39.153Z,24.14
2018-06-20T08:06:45.296Z,24.01
2018-06-20T08:07:52.050Z,23.84
2018-06-20T08:08:58.570Z,23.78
2018-06-20T08:10:05.209Z,23.76
2018-06-20T08:11:11.857Z,23.74
2018-06-20T08:12:18.570Z,23.71
2018-06-20T08:13:25.647Z,23.70
2018-06-20T08:14:32.291Z,23.60
2018-06-20T08:15:38.463Z,23.56
2018-06-20T08:16:45.106Z,23.47
2018-06-20T08:17:51.755Z,23.30
2018-06-20T08:18:58.453Z,23.22
2018-06-20T08:20:05.052Z,23.12
2018-06-20T08:21:11.706Z,23.08
2018-06-20T08:22:18.357Z,23.09
2018-06-20T08:23:25.511Z,22.91
2018-06-20T08:24:32.173Z,23.02
2018-06-20T08:25:38.338Z,23.14
2018-06-20T08:26:44.990Z,23.20
2018-06-20T08:27:51.659Z,23.16
2018-06-20T08:28:58.312Z,23.12
2018-06-20T08:30:05.475Z,23.12
2018-06-20T08:31:11.646Z,23.11
2018-06-20T08:32:18.309Z,23.18
2018-06-20T08:33:24.990Z,23.28
2018-06-20T08:34:31.652Z,23.34
2018-06-20T08:35:38.815Z,23.41
2018-06-20T08:36:44.995Z,23.43
2018-06-20T08:37:51.666Z,23.45
2018-06-20T08:38:58.337Z,23.54
2018-06-20T08:40:05.019Z,23.59
2018-06-20T08:41:12.182Z,23.59
2018-06-20T08:42:18.852Z,23.66
2018-06-20T08:43:25.538Z,23.74
2018-06-20T08:44:31.723Z,23.84
2018-06-20T08:45:38.897Z,23.84
2018-06-20T08:46:45.090Z,23.85
2018-06-20T08:47:51.780Z,23.84
2018-06-20T08:48:58.459Z,23.80
2018-06-20T08:50:05.140Z,23.77
2018-06-20T08:51:11.826Z,23.86
2018-06-20T08:52:18.509Z,23.95
2018-06-20T08:53:25.224Z,24.02
2018-06-20T08:54:31.883Z,24.06
2018-06-20T08:55:38.566Z,24.09
2018-06-20T08:56:45.251Z,24.07
2018-06-20T08:57:51.950Z,23.97
2018-06-20T08:58:58.649Z,23.90
2018-06-20T09:00:05.332Z,23.98
2018-06-20T09:01:12.032Z,24.06
2018-06-20T09:02:18.722Z,24.15
2018-06-20T09:03:25.440Z,24.18
2018-06-20T09:04:32.123Z,24.29
2018-06-20T09:05:38.836Z,24.38
2018-06-20T09:06:45.524Z,24.43
2018-06-20T09:07:52.227Z,24.46
2018-06-20T09:08:59.439Z,24.45
2018-06-20T09:10:05.637Z,24.41
2018-06-20T09:11:12.344Z,24.42
2018-06-20T09:12:19.551Z,24.38
2018-06-20T09:13:25.763Z,24.35
2018-06-20T09:14:32.990Z,24.39
2018-06-20T09:15:39.187Z,24.44
2018-06-20T09:16:45.900Z,24.54
2018-06-20T09:17:53.115Z,24.63
2018-06-20T09:18:59.334Z,24.80
2018-06-20T09:20:06.053Z,24.98
2018-06-20T09:21:12.762Z,24.91
2018-06-20T09:22:19.485Z,24.80
2018-06-20T09:23:26.217Z,24.66
2018-06-20T09:24:32.946Z,24.83
2018-06-20T09:25:39.656Z,24.83
2018-06-20T09:26:46.384Z,24.85
2018-06-20T09:27:53.120Z,24.90
2018-06-20T09:29:00.878Z,24.96
2018-06-20T09:30:06.608Z,24.97
2018-06-20T09:31:13.279Z,24.99
2018-06-20T09:32:20.000Z,25.02
2018-06-20T09:33:26.724Z,25.04
2018-06-20T09:34:34.449Z,24.94
2018-06-20T09:35:40.182Z,25.02
2018-06-20T09:36:47.066Z,25.13
2018-06-20T09:37:53.629Z,25.20
2018-06-20T09:39:00.387Z,25.30
2018-06-20T09:40:07.102Z,25.36
2018-06-20T09:41:13.836Z,25.30
2018-06-20T09:42:20.554Z,25.30
2018-06-20T09:43:27.788Z,25.36
2018-06-20T09:44:34.527Z,25.36
2018-06-20T09:45:40.774Z,25.37
2018-06-20T09:46:48.007Z,25.41
2018-06-20T09:47:54.233Z,25.38
2018-06-20T09:49:00.975Z,25.33
2018-06-20T09:50:07.714Z,25.49
2018-06-20T09:51:14.443Z,25.60
2018-06-20T09:52:21.247Z,25.58
2018-06-20T09:53:28.122Z,25.55
2018-06-20T09:54:34.661Z,25.58
2018-06-20T09:55:41.402Z,25.70
2018-06-20T09:56:48.134Z,25.98
2018-06-20T09:57:54.901Z,26.10
2018-06-20T09:59:01.622Z,26.13
2018-06-20T10:00:08.373Z,26.22
2018-06-20T10:01:15.118Z,26.14
2018-06-20T10:02:21.885Z,26.14
2018-06-20T10:03:29.086Z,26.23
2018-06-20T10:04:35.360Z,26.41
2018-06-20T10:05:42.134Z,26.49
2018-06-20T10:06:48.945Z,26.50
2018-06-20T10:07:55.605Z,26.42
2018-06-20T10:09:02.411Z,26.28
2018-06-20T10:10:09.107Z,26.10
2018-06-20T10:11:15.911Z,25.94
2018-06-20T10:12:22.611Z,25.90
2018-06-20T10:13:29.360Z,25.88
2018-06-20T10:14:36.123Z,25.95
2018-06-20T10:15:42.881Z,26.11
2018-06-20T10:16:49.631Z,26.28
2018-06-20T10:17:56.396Z,26.57
2018-06-20T10:19:03.150Z,26.70
2018-06-20T10:20:09.939Z,26.72
2018-06-20T10:21:17.847Z,26.78
2018-06-20T10:22:23.442Z,26.77
2018-06-20T10:23:30.209Z,26.69
2018-06-20T10:24:36.976Z,26.65
2018-06-20T10:25:43.736Z,26.64
2018-06-20T10:26:51.034Z,26.63
2018-06-20T10:27:57.333Z,26.60
2018-06-20T10:29:04.560Z,26.63
2018-06-20T10:30:11.338Z,26.72
2018-06-20T10:31:17.682Z,26.75
2018-06-20T10:32:24.404Z,26.79
2018-06-20T10:33:31.183Z,26.77
2018-06-20T10:34:37.968Z,26.74
2018-06-20T10:35:44.759Z,26.70
2018-06-20T10:36:51.545Z,26.79
2018-06-20T10:37:58.840Z,26.83
2018-06-20T10:39:05.621Z,26.91
2018-06-20T10:40:11.921Z,26.99
2018-06-20T10:41:18.709Z,27.06
2018-06-20T10:42:25.516Z,27.08
2018-06-20T10:43:32.311Z,27.10
2018-06-20T10:44:39.110Z,27.09
2018-06-20T10:45:45.910Z,27.25
2018-06-20T10:46:53.214Z,27.23
2018-06-20T10:47:59.500Z,27.05
2018-06-20T10:49:06.324Z,27.00
2018-06-20T10:50:13.603Z,27.07
2018-06-20T10:51:20.396Z,27.12
2018-06-20T10:52:26.715Z,27.30
2018-06-20T10:53:33.504Z,27.37
2018-06-20T10:54:40.306Z,27.44
2018-06-20T10:55:47.116Z,27.45
2018-06-20T10:56:54.427Z,27.59
2018-06-20T10:58:01.232Z,27.87
2018-06-20T10:59:08.033Z,27.94
2018-06-20T11:00:14.832Z,28.18
2018-06-20T11:01:22.173Z,27.90
2018-06-20T11:02:27.988Z,27.60
2018-06-20T11:03:34.818Z,27.44
2018-06-20T11:04:41.704Z,27.45
2018-06-20T11:05:48.671Z,27.59
2018-06-20T11:06:56.257Z,27.64
2018-06-20T11:08:03.342Z,27.68
2018-06-20T11:09:10.066Z,27.72
2018-06-20T11:10:17.354Z,27.79
2018-06-20T11:11:24.699Z,27.82
2018-06-20T11:12:32.117Z,27.88
2018-06-20T11:13:39.576Z,27.95
2018-06-20T11:14:47.083Z,28.11
2018-06-20T11:15:54.649Z,28.30
2018-06-20T11:17:02.763Z,28.13
2018-06-20T11:18:09.909Z,27.95
2018-06-20T11:19:17.580Z,27.92
2018-06-20T11:20:25.292Z,27.97
2018-06-20T11:21:33.059Z,28.16
2018-06-20T11:22:40.836Z,28.53
2018-06-20T11:23:48.652Z,28.67
2018-06-20T11:24:56.493Z,28.92
2018-06-20T11:26:04.853Z,29.07
2018-06-20T11:27:12.257Z,29.10
2018-06-20T11:28:20.154Z,29.12
2018-06-20T11:29:28.078Z,28.98
2018-06-20T11:30:36.032Z,28.91
2018-06-20T11:31:44.009Z,28.94
2018-06-20T11:32:52.022Z,29.00
2018-06-20T11:34:00.029Z,29.08
2018-06-20T11:35:08.074Z,29.18
2018-06-20T11:36:16.621Z,29.20
2018-06-20T11:37:24.205Z,29.27
2018-06-20T11:38:32.798Z,29.33
2018-06-20T11:39:40.397Z,29.40
2018-06-20T11:40:48.519Z,29.72
2018-06-20T11:41:56.648Z,29.69
2018-06-20T11:43:04.803Z,29.78
2018-06-20T11:44:13.452Z,29.86
2018-06-20T11:45:21.111Z,29.99
2018-06-20T11:46:29.797Z,30.21
2018-06-20T11:47:37.506Z,30.39
2018-06-20T11:48:45.722Z,30.47
2018-06-20T11:49:53.975Z,30.52
2018-06-20T11:51:02.188Z,30.36
2018-06-20T11:52:11.009Z,30.06
2018-06-20T11:53:19.222Z,29.86
2018-06-20T11:54:27.009Z,29.78
2018-06-20T11:55:35.300Z,30.07
2018-06-20T11:56:43.612Z,30.28
2018-06-20T11:57:51.905Z,30.73
2018-06-20T11:59:00.217Z,30.57
2018-06-20T12:00:08.509Z,30.41
2018-06-20T12:01:16.814Z,30.20
2018-06-20T12:02:25.117Z,30.15
2018-06-20T12:03:33.435Z,30.11
2018-06-20T12:04:41.757Z,29.98
2018-06-20T12:05:50.579Z,29.91
2018-06-20T12:06:59.005Z,29.80
2018-06-20T12:08:06.765Z,29.67
2018-06-20T12:09:15.124Z,29.58
2018-06-20T12:10:23.493Z,29.61
2018-06-20T12:11:31.854Z,29.70
2018-06-20T12:12:40.257Z,29.98
2018-06-20T12:13:48.643Z,30.48
2018-06-20T12:14:57.042Z,30.82
2018-06-20T12:16:05.464Z,31.01
2018-06-20T12:17:13.873Z,31.03
2018-06-20T12:18:22.278Z,30.87
2018-06-20T12:19:30.702Z,30.72
2018-06-20T12:20:39.112Z,30.61
2018-06-20T12:21:48.043Z,30.47
2018-06-20T12:22:55.972Z,30.38
2018-06-20T12:24:04.421Z,30.49
2018-06-20T12:25:13.849Z,30.48
2018-06-20T12:26:21.298Z,30.48
2018-06-20T12:27:29.745Z,30.52
2018-06-20T12:28:38.187Z,30.60
2018-06-20T12:29:47.156Z,30.61
2018-06-20T12:30:55.116Z,30.83
2018-06-20T12:32:03.588Z,30.91
2018-06-20T12:33:12.054Z,30.95
2018-06-20T12:34:20.529Z,30.93
2018-06-20T12:35:29.004Z,30.94
2018-06-20T12:36:37.488Z,30.76
2018-06-20T12:37:45.951Z,30.48
2018-06-20T12:38:54.432Z,30.52
2018-06-20T12:40:02.902Z,30.84
2018-06-20T12:41:11.368Z,31.16
2018-06-20T12:42:20.828Z,31.31
2018-06-20T12:43:28.292Z,31.33
2018-06-20T12:44:36.769Z,31.31
2018-06-20T12:45:45.229Z,31.57
2018-06-20T12:46:53.687Z,31.89
2018-06-20T12:48:02.139Z,31.82
2018-06-20T12:49:11.584Z,31.58
2018-06-20T12:50:19.498Z,31.34
2018-06-20T12:51:27.452Z,31.55
2018-06-20T12:52:35.967Z,31.83
2018-06-20T12:53:44.311Z,32.38
2018-06-20T12:54:53.232Z,32.69
2018-06-20T12:56:01.643Z,32.23
2018-06-20T12:57:09.571Z,31.76
2018-06-20T12:58:18.528Z,31.57
2018-06-20T12:59:26.876Z,31.13
2018-06-20T13:00:34.791Z,30.74
2018-06-20T13:01:43.192Z,30.74
2018-06-20T13:02:51.599Z,30.77
2018-06-20T13:04:00.530Z,30.90
2018-06-20T13:05:08.934Z,31.04
2018-06-20T13:06:16.861Z,31.18
2018-06-20T13:07:25.294Z,31.26
2018-06-20T13:08:33.718Z,31.20
2018-06-20T13:09:42.660Z,31.23
2018-06-20T13:10:50.589Z,31.28
2018-06-20T13:11:59.510Z,31.38
2018-06-20T13:13:07.451Z,31.35
2018-06-20T13:14:15.867Z,31.37
2018-06-20T13:15:24.782Z,31.49
2018-06-20T13:16:32.686Z,31.79
2018-06-20T13:17:41.089Z,31.69
2018-06-20T13:18:49.493Z,31.76
2018-06-20T13:19:57.899Z,31.89
2018-06-20T13:21:07.286Z,31.99
2018-06-20T13:22:15.684Z,32.06
2018-06-20T13:23:23.077Z,32.31
2018-06-20T13:24:32.008Z,32.33
2018-06-20T13:25:39.854Z,32.15
2018-06-20T13:26:48.253Z,31.90
2018-06-20T13:27:56.608Z,31.77
2018-06-20T13:29:04.964Z,31.70
2018-06-20T13:30:13.332Z,31.32
2018-06-20T13:31:21.873Z,31.17
2018-06-20T13:32:30.017Z,31.33
2018-06-20T13:33:38.369Z,31.20
2018-06-20T13:34:46.704Z,31.25
2018-06-20T13:35:55.066Z,31.41
2018-06-20T13:37:03.374Z,31.71
2018-06-20T13:38:12.211Z,31.90
2018-06-20T13:39:21.028Z,32.27
2018-06-20T13:40:28.352Z,32.16
2018-06-20T13:41:36.671Z,32.29
2018-06-20T13:42:44.941Z,32.77
2018-06-20T13:43:53.233Z,33.59
2018-06-20T13:45:01.493Z,33.90
2018-06-20T13:46:09.761Z,34.04
2018-06-20T13:47:18.016Z,33.87
2018-06-20T13:48:26.752Z,33.58
2018-06-20T13:49:35.015Z,33.38
2018-06-20T13:50:42.762Z,33.33
2018-06-20T13:51:51.489Z,33.20
2018-06-20T13:52:59.281Z,32.97
2018-06-20T13:54:07.520Z,32.84
2018-06-20T13:55:16.273Z,33.05
2018-06-20T13:56:24.049Z,32.95
2018-06-20T13:57:32.316Z,33.23
2018-06-20T13:58:41.077Z,33.44
2018-06-20T13:59:48.853Z,33.61
2018-06-20T14:00:57.617Z,33.66
2018-06-20T14:02:05.888Z,33.46
2018-06-20T14:03:13.686Z,33.39
2018-06-20T14:04:21.984Z,33.62
2018-06-20T14:05:30.778Z,33.88
2018-06-20T14:06:38.607Z,33.74
2018-06-20T14:07:46.915Z,33.45
2018-06-20T14:08:55.732Z,33.58
2018-06-20T14:10:03.577Z,33.85
2018-06-20T14:11:12.037Z,34.07
2018-06-20T14:12:20.739Z,34.13
2018-06-20T14:13:28.582Z,34.43
2018-06-20T14:14:36.921Z,34.46
2018-06-20T14:15:45.277Z,34.21
2018-06-20T14:16:53.615Z,34.09
2018-06-20T14:18:02.465Z,33.95
2018-06-20T14:19:10.806Z,33.62
2018-06-20T14:20:19.680Z,33.68
2018-06-20T14:21:27.537Z,33.97